sensor_id;sensor_type;location;lat;lon;timestamp;pressure;altitude;pressure_sealevel;temperature;humidity
52935;BME280;38802;50.198;19.796;2023-07-09T00:02:21;96653.20;;;18.40;46.29
52935;BME280;38802;50.198;19.796;2023-07-09T00:04:49;96653.30;;;18.37;46.21
52935;BME280;38802;50.198;19.796;2023-07-09T00:07:22;96657.33;;;18.34;46.07
52935;BME280;38802;50.198;19.796;2023-07-09T00:09:54;96654.02;;;18.31;45.82
52935;BME280;38802;50.198;19.796;2023-07-09T00:12:22;96654.29;;;18.27;45.97
52935;BME280;38802;50.198;19.796;2023-07-09T00:14:50;96654.16;;;18.25;45.70
52935;BME280;38802;50.198;19.796;2023-07-09T00:17:31;96654.95;;;18.24;45.98
52935;BME280;38802;50.198;19.796;2023-07-09T00:20:06;96655.80;;;18.23;46.11
52935;BME280;38802;50.198;19.796;2023-07-09T00:22:40;96651.92;;;18.23;46.14
52935;BME280;38802;50.198;19.796;2023-07-09T00:25:11;96652.54;;;18.25;46.18
52935;BME280;38802;50.198;19.796;2023-07-09T00:27:44;96652.52;;;18.25;46.14
52935;BME280;38802;50.198;19.796;2023-07-09T00:30:20;96654.73;;;18.21;46.23
52935;BME280;38802;50.198;19.796;2023-07-09T00:32:52;96654.61;;;18.15;46.14
52935;BME280;38802;50.198;19.796;2023-07-09T00:35:23;96655.66;;;18.12;45.94
52935;BME280;38802;50.198;19.796;2023-07-09T00:37:52;96655.20;;;18.11;45.91
52935;BME280;38802;50.198;19.796;2023-07-09T00:40:22;96657.05;;;18.07;45.91
52935;BME280;38802;50.198;19.796;2023-07-09T00:42:53;96658.42;;;18.04;45.92
52935;BME280;38802;50.198;19.796;2023-07-09T00:45:26;96656.28;;;18.03;45.88
52935;BME280;38802;50.198;19.796;2023-07-09T00:48:02;96660.36;;;17.99;46.03
52935;BME280;38802;50.198;19.796;2023-07-09T00:51:07;96656.27;;;17.97;45.91
52935;BME280;38802;50.198;19.796;2023-07-09T00:53:39;96651.38;;;17.88;46.23
52935;BME280;38802;50.198;19.796;2023-07-09T00:56:18;96653.64;;;17.84;46.25
52935;BME280;38802;50.198;19.796;2023-07-09T00:58:53;96651.52;;;17.83;45.87
52935;BME280;38802;50.198;19.796;2023-07-09T01:01:22;96649.91;;;17.80;45.96
52935;BME280;38802;50.198;19.796;2023-07-09T01:03:53;96651.27;;;17.77;46.03
52935;BME280;38802;50.198;19.796;2023-07-09T01:06:30;96649.73;;;17.73;45.92
52935;BME280;38802;50.198;19.796;2023-07-09T01:09:01;96645.11;;;17.74;46.09
52935;BME280;38802;50.198;19.796;2023-07-09T01:11:33;96644.27;;;17.75;45.94
52935;BME280;38802;50.198;19.796;2023-07-09T01:14:03;96644.79;;;17.75;45.77
52935;BME280;38802;50.198;19.796;2023-07-09T01:16:42;96647.20;;;17.74;45.61
52935;BME280;38802;50.198;19.796;2023-07-09T01:19:12;96645.75;;;17.76;45.62
52935;BME280;38802;50.198;19.796;2023-07-09T01:21:42;96643.44;;;17.78;45.62
52935;BME280;38802;50.198;19.796;2023-07-09T01:24:16;96642.13;;;17.79;45.55
52935;BME280;38802;50.198;19.796;2023-07-09T01:26:54;96641.19;;;17.77;45.37
52935;BME280;38802;50.198;19.796;2023-07-09T01:29:22;96639.77;;;17.78;45.36
52935;BME280;38802;50.198;19.796;2023-07-09T01:31:51;96639.23;;;17.80;45.29
52935;BME280;38802;50.198;19.796;2023-07-09T01:34:19;96637.62;;;17.82;45.15
52935;BME280;38802;50.198;19.796;2023-07-09T01:36:49;96632.61;;;17.82;45.15
52935;BME280;38802;50.198;19.796;2023-07-09T01:39:19;96637.30;;;17.81;44.98
52935;BME280;38802;50.198;19.796;2023-07-09T01:41:47;96632.24;;;17.79;44.94
52935;BME280;38802;50.198;19.796;2023-07-09T01:44:16;96635.02;;;17.79;45.20
52935;BME280;38802;50.198;19.796;2023-07-09T01:46:44;96636.17;;;17.77;44.98
52935;BME280;38802;50.198;19.796;2023-07-09T01:49:17;96636.20;;;17.77;45.09
52935;BME280;38802;50.198;19.796;2023-07-09T01:51:45;96637.71;;;17.76;45.13
52935;BME280;38802;50.198;19.796;2023-07-09T01:54:15;96638.48;;;17.73;45.07
52935;BME280;38802;50.198;19.796;2023-07-09T01:56:44;96640.48;;;17.68;45.20
52935;BME280;38802;50.198;19.796;2023-07-09T01:59:12;96641.96;;;17.64;45.30
52935;BME280;38802;50.198;19.796;2023-07-09T02:01:40;96639.59;;;17.63;45.38
52935;BME280;38802;50.198;19.796;2023-07-09T02:04:09;96645.39;;;17.64;45.26
52935;BME280;38802;50.198;19.796;2023-07-09T02:06:37;96643.66;;;17.59;45.26
52935;BME280;38802;50.198;19.796;2023-07-09T02:09:05;96644.51;;;17.54;45.27
52935;BME280;38802;50.198;19.796;2023-07-09T02:11:33;96645.21;;;17.49;45.25
52935;BME280;38802;50.198;19.796;2023-07-09T02:14:01;96649.05;;;17.44;45.45
52935;BME280;38802;50.198;19.796;2023-07-09T02:16:29;96645.17;;;17.39;45.45
52935;BME280;38802;50.198;19.796;2023-07-09T02:18:57;96643.71;;;17.33;45.64
52935;BME280;38802;50.198;19.796;2023-07-09T02:21:26;96643.93;;;17.25;45.86
52935;BME280;38802;50.198;19.796;2023-07-09T02:23:57;96648.39;;;17.20;45.93
52935;BME280;38802;50.198;19.796;2023-07-09T02:26:25;96650.05;;;17.16;45.99
52935;BME280;38802;50.198;19.796;2023-07-09T02:28:54;96651.55;;;17.15;46.10
52935;BME280;38802;50.198;19.796;2023-07-09T02:31:22;96658.34;;;17.15;46.37
52935;BME280;38802;50.198;19.796;2023-07-09T02:33:50;96657.02;;;17.16;46.43
52935;BME280;38802;50.198;19.796;2023-07-09T02:36:18;96659.77;;;17.13;46.51
52935;BME280;38802;50.198;19.796;2023-07-09T02:38:46;96666.39;;;17.12;46.59
52935;BME280;38802;50.198;19.796;2023-07-09T02:41:14;96665.65;;;17.09;46.77
52935;BME280;38802;50.198;19.796;2023-07-09T02:43:44;96667.87;;;17.05;46.98
52935;BME280;38802;50.198;19.796;2023-07-09T02:46:12;96667.09;;;17.02;46.98
52935;BME280;38802;50.198;19.796;2023-07-09T02:48:40;96668.05;;;17.03;47.11
52935;BME280;38802;50.198;19.796;2023-07-09T02:51:09;96668.57;;;17.01;47.23
52935;BME280;38802;50.198;19.796;2023-07-09T02:53:37;96672.27;;;16.98;47.41
52935;BME280;38802;50.198;19.796;2023-07-09T02:56:05;96674.42;;;16.95;47.59
52935;BME280;38802;50.198;19.796;2023-07-09T02:58:33;96672.64;;;16.94;47.76
52935;BME280;38802;50.198;19.796;2023-07-09T03:01:01;96676.16;;;16.94;47.86
52935;BME280;38802;50.198;19.796;2023-07-09T03:03:33;96677.02;;;16.94;48.22
52935;BME280;38802;50.198;19.796;2023-07-09T03:06:01;96674.17;;;16.92;48.40
52935;BME280;38802;50.198;19.796;2023-07-09T03:08:29;96677.34;;;16.92;48.74
52935;BME280;38802;50.198;19.796;2023-07-09T03:10:57;96678.48;;;16.92;48.82
52935;BME280;38802;50.198;19.796;2023-07-09T03:13:27;96680.09;;;16.91;49.05
52935;BME280;38802;50.198;19.796;2023-07-09T03:15:56;96682.27;;;16.92;48.97
52935;BME280;38802;50.198;19.796;2023-07-09T03:18:24;96680.00;;;16.98;49.30
52935;BME280;38802;50.198;19.796;2023-07-09T03:20:52;96680.14;;;17.00;49.34
52935;BME280;38802;50.198;19.796;2023-07-09T03:23:20;96675.42;;;17.03;49.41
52935;BME280;38802;50.198;19.796;2023-07-09T03:25:48;96678.56;;;17.05;49.98
52935;BME280;38802;50.198;19.796;2023-07-09T03:28:16;96678.66;;;17.05;50.17
52935;BME280;38802;50.198;19.796;2023-07-09T03:30:46;96677.77;;;17.05;50.22
52935;BME280;38802;50.198;19.796;2023-07-09T03:33:16;96675.02;;;17.07;50.52
52935;BME280;38802;50.198;19.796;2023-07-09T03:35:44;96672.45;;;17.08;50.62
52935;BME280;38802;50.198;19.796;2023-07-09T03:38:13;96670.10;;;17.10;50.93
52935;BME280;38802;50.198;19.796;2023-07-09T03:40:41;96675.05;;;17.12;51.10
52935;BME280;38802;50.198;19.796;2023-07-09T03:43:10;96674.42;;;17.11;51.52
52935;BME280;38802;50.198;19.796;2023-07-09T03:45:38;96671.94;;;17.09;51.59
52935;BME280;38802;50.198;19.796;2023-07-09T03:48:06;96671.69;;;17.12;51.77
52935;BME280;38802;50.198;19.796;2023-07-09T03:50:34;96668.58;;;17.15;51.95
52935;BME280;38802;50.198;19.796;2023-07-09T03:53:03;96669.86;;;17.16;52.15
52935;BME280;38802;50.198;19.796;2023-07-09T03:55:32;96668.83;;;17.17;52.14
52935;BME280;38802;50.198;19.796;2023-07-09T03:58:00;96669.06;;;17.20;52.36
52935;BME280;38802;50.198;19.796;2023-07-09T04:00:31;96665.30;;;17.24;52.56
52935;BME280;38802;50.198;19.796;2023-07-09T04:02:59;96663.92;;;17.26;52.77
52935;BME280;38802;50.198;19.796;2023-07-09T04:05:28;96664.00;;;17.27;53.08
52935;BME280;38802;50.198;19.796;2023-07-09T04:07:56;96662.36;;;17.29;53.26
52935;BME280;38802;50.198;19.796;2023-07-09T04:10:24;96659.41;;;17.36;53.48
52935;BME280;38802;50.198;19.796;2023-07-09T04:12:52;96661.63;;;17.45;53.69
52935;BME280;38802;50.198;19.796;2023-07-09T04:15:20;96666.88;;;17.53;53.77
52935;BME280;38802;50.198;19.796;2023-07-09T04:17:49;96669.66;;;17.61;53.88
52935;BME280;38802;50.198;19.796;2023-07-09T04:20:17;96668.98;;;17.64;53.84
52935;BME280;38802;50.198;19.796;2023-07-09T04:22:45;96667.73;;;17.66;53.84
52935;BME280;38802;50.198;19.796;2023-07-09T04:25:14;96666.46;;;17.66;53.78
52935;BME280;38802;50.198;19.796;2023-07-09T04:27:42;96664.38;;;17.69;54.20
52935;BME280;38802;50.198;19.796;2023-07-09T04:30:13;96664.88;;;17.71;53.98
52935;BME280;38802;50.198;19.796;2023-07-09T04:32:43;96662.38;;;17.73;54.01
52935;BME280;38802;50.198;19.796;2023-07-09T04:35:13;96664.16;;;17.76;54.20
52935;BME280;38802;50.198;19.796;2023-07-09T04:37:42;96664.16;;;17.78;54.05
52935;BME280;38802;50.198;19.796;2023-07-09T04:40:11;96669.20;;;17.82;54.05
52935;BME280;38802;50.198;19.796;2023-07-09T04:42:40;96671.58;;;17.86;54.08
52935;BME280;38802;50.198;19.796;2023-07-09T04:45:10;96671.65;;;17.92;54.33
52935;BME280;38802;50.198;19.796;2023-07-09T04:47:39;96671.67;;;17.99;54.23
52935;BME280;38802;50.198;19.796;2023-07-09T04:50:11;96666.80;;;18.07;54.31
52935;BME280;38802;50.198;19.796;2023-07-09T04:52:39;96670.54;;;18.16;54.45
52935;BME280;38802;50.198;19.796;2023-07-09T04:55:08;96669.95;;;18.25;54.57
52935;BME280;38802;50.198;19.796;2023-07-09T04:57:36;96667.09;;;18.34;54.89
52935;BME280;38802;50.198;19.796;2023-07-09T05:00:05;96664.73;;;18.44;54.78
52935;BME280;38802;50.198;19.796;2023-07-09T05:02:34;96665.04;;;18.56;55.00
52935;BME280;38802;50.198;19.796;2023-07-09T05:05:03;96663.09;;;18.68;55.07
52935;BME280;38802;50.198;19.796;2023-07-09T05:07:31;96668.08;;;18.83;55.08
52935;BME280;38802;50.198;19.796;2023-07-09T05:10:01;96665.41;;;18.98;55.40
52935;BME280;38802;50.198;19.796;2023-07-09T05:12:29;96660.63;;;19.13;55.30
52935;BME280;38802;50.198;19.796;2023-07-09T05:14:57;96665.95;;;19.31;55.26
52935;BME280;38802;50.198;19.796;2023-07-09T05:17:25;96663.46;;;19.49;55.28
52935;BME280;38802;50.198;19.796;2023-07-09T05:19:54;96670.46;;;19.67;55.07
52935;BME280;38802;50.198;19.796;2023-07-09T05:22:22;96669.13;;;19.88;55.11
52935;BME280;38802;50.198;19.796;2023-07-09T05:24:50;96672.06;;;20.11;54.81
52935;BME280;38802;50.198;19.796;2023-07-09T05:27:18;96669.69;;;20.31;54.53
52935;BME280;38802;50.198;19.796;2023-07-09T05:29:46;96671.33;;;20.53;54.30
52935;BME280;38802;50.198;19.796;2023-07-09T05:32:14;96669.73;;;20.74;53.90
52935;BME280;38802;50.198;19.796;2023-07-09T05:34:42;96667.92;;;20.95;53.59
52935;BME280;38802;50.198;19.796;2023-07-09T05:37:10;96672.45;;;21.17;53.26
52935;BME280;38802;50.198;19.796;2023-07-09T05:39:38;96672.59;;;21.37;52.99
52935;BME280;38802;50.198;19.796;2023-07-09T05:42:06;96672.59;;;21.58;52.85
52935;BME280;38802;50.198;19.796;2023-07-09T05:44:35;96675.73;;;21.79;52.48
52935;BME280;38802;50.198;19.796;2023-07-09T05:47:03;96679.05;;;22.00;52.27
52935;BME280;38802;50.198;19.796;2023-07-09T05:49:31;96680.89;;;22.19;51.91
52935;BME280;38802;50.198;19.796;2023-07-09T05:51:59;96684.71;;;22.38;51.88
52935;BME280;38802;50.198;19.796;2023-07-09T05:54:27;96682.90;;;22.55;51.17
52935;BME280;38802;50.198;19.796;2023-07-09T05:56:55;96680.38;;;22.73;50.43
52935;BME280;38802;50.198;19.796;2023-07-09T05:59:23;96682.21;;;22.85;49.58
52935;BME280;38802;50.198;19.796;2023-07-09T06:01:51;96680.45;;;22.99;49.59
52935;BME280;38802;50.198;19.796;2023-07-09T06:04:19;96682.20;;;23.18;49.46
52935;BME280;38802;50.198;19.796;2023-07-09T06:06:47;96681.50;;;23.36;49.09
52935;BME280;38802;50.198;19.796;2023-07-09T06:09:15;96679.27;;;23.54;48.72
52935;BME280;38802;50.198;19.796;2023-07-09T06:11:43;96678.58;;;23.70;48.30
52935;BME280;38802;50.198;19.796;2023-07-09T06:14:12;96686.22;;;23.83;48.25
52935;BME280;38802;50.198;19.796;2023-07-09T06:16:40;96682.52;;;23.96;48.08
52935;BME280;38802;50.198;19.796;2023-07-09T06:19:09;96683.52;;;24.14;48.26
52935;BME280;38802;50.198;19.796;2023-07-09T06:21:39;96682.59;;;24.32;48.31
52935;BME280;38802;50.198;19.796;2023-07-09T06:24:26;96682.69;;;24.57;47.76
52935;BME280;38802;50.198;19.796;2023-07-09T06:26:54;96681.12;;;24.77;47.90
52935;BME280;38802;50.198;19.796;2023-07-09T06:29:22;96678.83;;;24.93;47.28
52935;BME280;38802;50.198;19.796;2023-07-09T06:31:51;96678.27;;;25.08;47.24
52935;BME280;38802;50.198;19.796;2023-07-09T06:34:19;96681.52;;;25.24;47.11
52935;BME280;38802;50.198;19.796;2023-07-09T06:36:47;96683.91;;;25.41;47.08
52935;BME280;38802;50.198;19.796;2023-07-09T06:39:15;96683.84;;;25.54;46.09
52935;BME280;38802;50.198;19.796;2023-07-09T06:41:43;96682.98;;;25.66;46.16
52935;BME280;38802;50.198;19.796;2023-07-09T06:44:27;96681.00;;;25.76;45.49
52935;BME280;38802;50.198;19.796;2023-07-09T06:46:55;96682.42;;;25.86;45.17
52935;BME280;38802;50.198;19.796;2023-07-09T06:49:23;96684.70;;;25.93;44.59
52935;BME280;38802;50.198;19.796;2023-07-09T06:51:51;96685.13;;;25.99;44.61
52935;BME280;38802;50.198;19.796;2023-07-09T06:54:19;96682.98;;;26.07;43.79
52935;BME280;38802;50.198;19.796;2023-07-09T06:56:47;96680.93;;;26.15;44.22
52935;BME280;38802;50.198;19.796;2023-07-09T06:59:15;96682.61;;;26.25;44.07
52935;BME280;38802;50.198;19.796;2023-07-09T07:01:43;96681.63;;;26.36;44.18
52935;BME280;38802;50.198;19.796;2023-07-09T07:04:11;96679.85;;;26.49;44.08
52935;BME280;38802;50.198;19.796;2023-07-09T07:06:39;96682.71;;;26.63;43.49
52935;BME280;38802;50.198;19.796;2023-07-09T07:09:07;96680.62;;;26.73;43.31
52935;BME280;38802;50.198;19.796;2023-07-09T07:11:36;96680.51;;;26.83;43.57
52935;BME280;38802;50.198;19.796;2023-07-09T07:14:04;96685.36;;;26.98;42.98
52935;BME280;38802;50.198;19.796;2023-07-09T07:16:32;96685.98;;;27.15;43.03
52935;BME280;38802;50.198;19.796;2023-07-09T07:19:00;96683.77;;;27.27;42.62
52935;BME280;38802;50.198;19.796;2023-07-09T07:21:28;96682.20;;;27.34;41.69
52935;BME280;38802;50.198;19.796;2023-07-09T07:23:56;96681.20;;;27.36;41.34
52935;BME280;38802;50.198;19.796;2023-07-09T07:26:24;96682.42;;;27.47;41.29
52935;BME280;38802;50.198;19.796;2023-07-09T07:28:52;96683.63;;;27.58;40.97
52935;BME280;38802;50.198;19.796;2023-07-09T07:31:20;96678.55;;;27.70;40.79
52935;BME280;38802;50.198;19.796;2023-07-09T07:33:48;96673.09;;;27.80;40.30
52935;BME280;38802;50.198;19.796;2023-07-09T07:36:16;96673.48;;;27.89;40.22
52935;BME280;38802;50.198;19.796;2023-07-09T07:38:47;96677.65;;;28.02;40.02
52935;BME280;38802;50.198;19.796;2023-07-09T07:41:15;96679.04;;;28.09;39.79
52935;BME280;38802;50.198;19.796;2023-07-09T07:43:43;96677.66;;;28.14;39.57
52935;BME280;38802;50.198;19.796;2023-07-09T07:46:11;96677.65;;;28.15;39.25
52935;BME280;38802;50.198;19.796;2023-07-09T07:48:39;96678.64;;;28.25;39.13
52935;BME280;38802;50.198;19.796;2023-07-09T07:51:07;96677.31;;;28.32;38.59
52935;BME280;38802;50.198;19.796;2023-07-09T07:53:35;96674.55;;;28.29;38.11
52935;BME280;38802;50.198;19.796;2023-07-09T07:56:03;96677.20;;;28.30;38.59
52935;BME280;38802;50.198;19.796;2023-07-09T07:58:32;96678.42;;;28.38;38.24
52935;BME280;38802;50.198;19.796;2023-07-09T08:01:00;96679.05;;;28.46;38.36
52935;BME280;38802;50.198;19.796;2023-07-09T08:03:29;96679.08;;;28.55;37.81
52935;BME280;38802;50.198;19.796;2023-07-09T08:05:57;96677.60;;;28.67;37.45
52935;BME280;38802;50.198;19.796;2023-07-09T08:08:29;96676.94;;;28.73;37.04
52935;BME280;38802;50.198;19.796;2023-07-09T08:11:05;96676.28;;;28.81;37.17
52935;BME280;38802;50.198;19.796;2023-07-09T08:13:36;96676.27;;;28.93;37.36
52935;BME280;38802;50.198;19.796;2023-07-09T08:16:06;96673.02;;;29.00;36.22
52935;BME280;38802;50.198;19.796;2023-07-09T08:18:36;96674.02;;;28.99;35.61
52935;BME280;38802;50.198;19.796;2023-07-09T08:21:04;96674.20;;;29.04;35.70
52935;BME280;38802;50.198;19.796;2023-07-09T08:23:32;96669.98;;;29.16;35.91
52935;BME280;38802;50.198;19.796;2023-07-09T08:26:02;96664.02;;;29.23;34.97
52935;BME280;38802;50.198;19.796;2023-07-09T08:28:32;96664.70;;;29.27;34.66
52935;BME280;38802;50.198;19.796;2023-07-09T08:31:00;96668.04;;;29.27;34.70
52935;BME280;38802;50.198;19.796;2023-07-09T08:33:30;96668.96;;;29.28;34.57
52935;BME280;38802;50.198;19.796;2023-07-09T08:35:58;96665.09;;;29.32;34.68
52935;BME280;38802;50.198;19.796;2023-07-09T08:38:26;96664.86;;;29.34;34.40
52935;BME280;38802;50.198;19.796;2023-07-09T08:40:56;96662.33;;;29.41;34.62
52935;BME280;38802;50.198;19.796;2023-07-09T08:46:27;96661.55;;;29.50;34.59
52935;BME280;38802;50.198;19.796;2023-07-09T08:48:58;96663.25;;;29.58;34.75
52935;BME280;38802;50.198;19.796;2023-07-09T08:51:40;96659.60;;;29.61;34.49
52935;BME280;38802;50.198;19.796;2023-07-09T08:54:21;96664.23;;;29.61;34.34
52935;BME280;38802;50.198;19.796;2023-07-09T08:57:00;96667.21;;;29.63;34.30
52935;BME280;38802;50.198;19.796;2023-07-09T08:59:36;96664.20;;;29.67;34.11
52935;BME280;38802;50.198;19.796;2023-07-09T09:02:16;96661.66;;;29.75;33.99
52935;BME280;38802;50.198;19.796;2023-07-09T09:04:47;96662.91;;;29.78;33.96
52935;BME280;38802;50.198;19.796;2023-07-09T09:07:28;96662.88;;;29.79;33.37
52935;BME280;38802;50.198;19.796;2023-07-09T09:10:01;96662.69;;;29.72;33.11
52935;BME280;38802;50.198;19.796;2023-07-09T09:12:59;96665.22;;;29.70;33.29
52935;BME280;38802;50.198;19.796;2023-07-09T09:15:30;96664.48;;;29.74;33.40
52935;BME280;38802;50.198;19.796;2023-07-09T09:20:57;96664.52;;;29.67;32.66
52935;BME280;38802;50.198;19.796;2023-07-09T09:23:36;96664.66;;;29.59;32.83
52935;BME280;38802;50.198;19.796;2023-07-09T09:26:15;96666.11;;;29.54;32.61
52935;BME280;38802;50.198;19.796;2023-07-09T09:28:45;96657.29;;;29.51;32.30
52935;BME280;38802;50.198;19.796;2023-07-09T09:31:14;96658.13;;;29.52;32.66
52935;BME280;38802;50.198;19.796;2023-07-09T09:33:45;96659.41;;;29.54;32.62
52935;BME280;38802;50.198;19.796;2023-07-09T09:36:22;96660.31;;;29.54;32.73
52935;BME280;38802;50.198;19.796;2023-07-09T09:38:51;96662.79;;;29.57;32.93
52935;BME280;38802;50.198;19.796;2023-07-09T09:41:24;96663.41;;;29.63;33.02
52935;BME280;38802;50.198;19.796;2023-07-09T09:43:54;96665.83;;;29.68;32.75
52935;BME280;38802;50.198;19.796;2023-07-09T09:46:24;96664.27;;;29.55;32.71
52935;BME280;38802;50.198;19.796;2023-07-09T09:48:55;96661.45;;;29.52;32.46
52935;BME280;38802;50.198;19.796;2023-07-09T09:51:24;96661.91;;;29.53;32.26
52935;BME280;38802;50.198;19.796;2023-07-09T09:54:00;96664.44;;;29.61;32.69
52935;BME280;38802;50.198;19.796;2023-07-09T09:56:33;96666.30;;;29.68;33.16
52935;BME280;38802;50.198;19.796;2023-07-09T09:59:03;96663.62;;;29.76;32.79
52935;BME280;38802;50.198;19.796;2023-07-09T10:01:34;96662.09;;;29.80;32.33
52935;BME280;38802;50.198;19.796;2023-07-09T10:04:04;96665.02;;;29.49;32.20
52935;BME280;38802;50.198;19.796;2023-07-09T10:20:24;96665.19;;;28.83;32.68
52935;BME280;38802;50.198;19.796;2023-07-09T10:25:45;96666.62;;;28.70;32.94
52935;BME280;38802;50.198;19.796;2023-07-09T10:31:40;96665.27;;;29.02;33.27
52935;BME280;38802;50.198;19.796;2023-07-09T10:39:59;96659.88;;;28.85;32.89
52935;BME280;38802;50.198;19.796;2023-07-09T10:42:37;96662.99;;;28.75;32.69
52935;BME280;38802;50.198;19.796;2023-07-09T10:45:11;96661.16;;;28.70;32.99
52935;BME280;38802;50.198;19.796;2023-07-09T10:47:45;96664.09;;;28.78;32.89
52935;BME280;38802;50.198;19.796;2023-07-09T10:50:41;96660.64;;;28.84;32.88
52935;BME280;38802;50.198;19.796;2023-07-09T10:53:14;96659.27;;;28.95;32.80
52935;BME280;38802;50.198;19.796;2023-07-09T10:56:05;96653.84;;;28.99;32.85
52935;BME280;38802;50.198;19.796;2023-07-09T11:01:33;96649.04;;;29.11;32.97
52935;BME280;38802;50.198;19.796;2023-07-09T11:04:11;96648.31;;;29.17;32.79
52935;BME280;38802;50.198;19.796;2023-07-09T11:06:46;96642.70;;;29.20;32.49
52935;BME280;38802;50.198;19.796;2023-07-09T11:09:35;96645.51;;;29.30;32.87
52935;BME280;38802;50.198;19.796;2023-07-09T11:12:11;96648.14;;;29.26;32.81
52935;BME280;38802;50.198;19.796;2023-07-09T11:14:45;96648.69;;;29.04;32.83
52935;BME280;38802;50.198;19.796;2023-07-09T11:17:18;96653.36;;;28.85;32.60
52935;BME280;38802;50.198;19.796;2023-07-09T11:19:52;96657.15;;;28.61;32.96
52935;BME280;38802;50.198;19.796;2023-07-09T11:25:03;96644.84;;;28.31;33.54
52935;BME280;38802;50.198;19.796;2023-07-09T11:27:33;96640.74;;;28.24;33.37
52935;BME280;38802;50.198;19.796;2023-07-09T11:30:15;96640.92;;;28.22;33.72
52935;BME280;38802;50.198;19.796;2023-07-09T11:32:46;96638.58;;;28.35;33.83
52935;BME280;38802;50.198;19.796;2023-07-09T11:35:24;96634.73;;;28.50;34.09
52935;BME280;38802;50.198;19.796;2023-07-09T11:37:54;96636.09;;;28.70;34.38
52935;BME280;38802;50.198;19.796;2023-07-09T11:40:23;96630.81;;;28.82;33.89
52935;BME280;38802;50.198;19.796;2023-07-09T11:42:52;96627.61;;;28.86;33.34
52935;BME280;38802;50.198;19.796;2023-07-09T11:45:31;96622.66;;;28.95;33.34
52935;BME280;38802;50.198;19.796;2023-07-09T11:48:28;96623.90;;;28.93;33.15
52935;BME280;38802;50.198;19.796;2023-07-09T11:50:59;96621.87;;;28.91;33.18
52935;BME280;38802;50.198;19.796;2023-07-09T11:53:44;96621.08;;;28.91;33.32
52935;BME280;38802;50.198;19.796;2023-07-09T11:56:14;96618.30;;;28.87;33.11
52935;BME280;38802;50.198;19.796;2023-07-09T11:58:55;96617.80;;;28.87;33.41
52935;BME280;38802;50.198;19.796;2023-07-09T12:01:40;96615.36;;;28.97;33.88
52935;BME280;38802;50.198;19.796;2023-07-09T12:04:16;96614.45;;;29.02;34.14
52935;BME280;38802;50.198;19.796;2023-07-09T12:06:45;96612.10;;;29.04;34.19
52935;BME280;38802;50.198;19.796;2023-07-09T12:09:19;96615.70;;;29.08;33.89
52935;BME280;38802;50.198;19.796;2023-07-09T12:11:49;96607.55;;;29.08;33.51
52935;BME280;38802;50.198;19.796;2023-07-09T12:14:21;96607.90;;;29.10;33.39
52935;BME280;38802;50.198;19.796;2023-07-09T12:16:52;96605.67;;;29.16;33.35
52935;BME280;38802;50.198;19.796;2023-07-09T12:19:23;96608.23;;;29.10;33.13
52935;BME280;38802;50.198;19.796;2023-07-09T12:21:56;96601.16;;;29.08;33.63
52935;BME280;38802;50.198;19.796;2023-07-09T12:24:27;96599.13;;;29.06;33.54
52935;BME280;38802;50.198;19.796;2023-07-09T12:27:00;96595.19;;;29.10;33.17
52935;BME280;38802;50.198;19.796;2023-07-09T12:29:30;96595.41;;;29.13;33.47
52935;BME280;38802;50.198;19.796;2023-07-09T12:32:03;96596.60;;;29.11;33.69
52935;BME280;38802;50.198;19.796;2023-07-09T12:34:33;96597.27;;;29.02;33.77
52935;BME280;38802;50.198;19.796;2023-07-09T12:37:03;96593.62;;;28.94;33.62
52935;BME280;38802;50.198;19.796;2023-07-09T12:39:32;96594.20;;;28.87;33.42
52935;BME280;38802;50.198;19.796;2023-07-09T12:42:03;96595.69;;;28.83;33.51
52935;BME280;38802;50.198;19.796;2023-07-09T12:44:35;96592.06;;;28.83;33.75
52935;BME280;38802;50.198;19.796;2023-07-09T12:47:04;96590.81;;;28.81;33.90
52935;BME280;38802;50.198;19.796;2023-07-09T12:49:38;96583.39;;;28.80;34.04
52935;BME280;38802;50.198;19.796;2023-07-09T12:52:14;96584.11;;;28.81;34.04
52935;BME280;38802;50.198;19.796;2023-07-09T12:55:00;96581.11;;;28.76;33.97
52935;BME280;38802;50.198;19.796;2023-07-09T12:57:29;96575.34;;;28.75;34.10
52935;BME280;38802;50.198;19.796;2023-07-09T12:59:58;96574.74;;;28.82;34.03
52935;BME280;38802;50.198;19.796;2023-07-09T13:02:27;96576.15;;;28.88;34.25
52935;BME280;38802;50.198;19.796;2023-07-09T13:05:03;96570.77;;;28.96;34.30
52935;BME280;38802;50.198;19.796;2023-07-09T13:07:36;96570.64;;;29.03;34.18
52935;BME280;38802;50.198;19.796;2023-07-09T13:12:38;96570.42;;;29.12;34.08
52935;BME280;38802;50.198;19.796;2023-07-09T13:15:25;96572.85;;;29.14;33.70
52935;BME280;38802;50.198;19.796;2023-07-09T13:17:57;96571.15;;;29.15;33.59
52935;BME280;38802;50.198;19.796;2023-07-09T13:20:26;96568.31;;;29.04;33.24
52935;BME280;38802;50.198;19.796;2023-07-09T13:22:55;96573.55;;;28.90;33.47
52935;BME280;38802;50.198;19.796;2023-07-09T13:25:24;96575.84;;;28.76;33.33
52935;BME280;38802;50.198;19.796;2023-07-09T13:28:19;96576.27;;;28.65;33.73
52935;BME280;38802;50.198;19.796;2023-07-09T13:30:50;96573.16;;;28.57;33.74
52935;BME280;38802;50.198;19.796;2023-07-09T13:33:19;96572.74;;;28.60;33.28
52935;BME280;38802;50.198;19.796;2023-07-09T13:35:47;96571.02;;;28.59;33.86
52935;BME280;38802;50.198;19.796;2023-07-09T13:38:18;96566.38;;;28.68;34.08
52935;BME280;38802;50.198;19.796;2023-07-09T13:40:48;96562.03;;;28.70;33.83
52935;BME280;38802;50.198;19.796;2023-07-09T13:43:27;96559.73;;;28.72;33.47
52935;BME280;38802;50.198;19.796;2023-07-09T13:45:56;96555.22;;;28.72;33.08
52935;BME280;38802;50.198;19.796;2023-07-09T13:48:26;96560.47;;;28.72;33.09
52935;BME280;38802;50.198;19.796;2023-07-09T13:50:55;96558.41;;;28.79;33.21